X  Stänga Metar väderdata för luftfart     ESNL Lycksele Airport
Temperatur
7°C Temperatur
1°C Daggpunkt
66% Fuktighet



Vind
3 M/S
6 MPH
10 KM/T
5 KTS



Lugn
Norr
Nuvarande omständigheter

Klar Klar
Tryck 1009.92 (hPa) - 29.82 (inHg)
Synlighet 6.2 (mil) - 10 (km)
Flygplats
Flygplatskod ESNL

Plats: Lycksele Airport
Distans: 35 (km)

Metar:
ESNL 231750Z AUTO VRB05KT 9999 NCD 07/01 Q1010

Tid: 2022-01-23 18:50 CET